Time;durP1;ratioP1;P1;durP2;ratioP2;P2;SDS_P1;SDS_P2;PMS_P1;PMS_P2;Temp;Humidity;BMP_temperature;BMP_pressure;BME280_temperature;BME280_humidity;BME280_pressure;Samples;Min_cycle;Max_cycle;Signal;HPM_P1;HPM_P2
2023/11/26 00:01:59;;;;;;;4.38;1.88;;;3.50;99.90;;;;;;4969736;28;20038;-47
2023/11/26 00:04:25;;;;;;;5.32;1.67;;;3.50;99.90;;;;;;4968498;28;20054;-45
2023/11/26 00:06:50;;;;;;;3.03;2.17;;;3.50;99.90;;;;;;4968755;28;20042;-49
2023/11/26 00:09:16;;;;;;;4.88;2.10;;;3.60;99.90;;;;;;4952395;28;20035;-52
2023/11/26 00:11:42;;;;;;;2.95;1.90;;;3.60;99.90;;;;;;4969113;28;20031;-48
2023/11/26 00:14:08;;;;;;;5.57;2.47;;;3.60;99.90;;;;;;4969109;28;20026;-47
2023/11/26 00:16:37;;;;;;;3.53;2.00;;;3.60;99.90;;;;;;4969600;28;20110;-47
2023/11/26 00:19:03;;;;;;;1.80;1.70;;;3.50;99.90;;;;;;4969561;28;20033;-44
2023/11/26 00:21:29;;;;;;;6.38;1.92;;;3.60;99.90;;;;;;4969239;28;20041;-46
2023/11/26 00:23:55;;;;;;;4.65;2.15;;;3.60;99.90;;;;;;4951700;28;20118;-48
2023/11/26 00:26:21;;;;;;;5.65;2.38;;;3.70;99.90;;;;;;4968622;28;20513;-49
2023/11/26 00:28:47;;;;;;;3.15;1.90;;;3.60;99.90;;;;;;4969167;28;20027;-48
2023/11/26 00:31:13;;;;;;;5.35;1.75;;;3.60;99.90;;;;;;4968893;28;20072;-46
2023/11/26 00:33:44;;;;;;;4.13;2.03;;;3.60;99.90;;;;;;4969286;28;20027;-47
2023/11/26 00:36:12;;;;;;;3.20;1.70;;;3.70;99.90;;;;;;4969397;28;20019;-50
2023/11/26 00:38:37;;;;;;;3.28;1.90;;;3.60;99.90;;;;;;4969046;28;20027;-54
2023/11/26 00:41:03;;;;;;;2.47;1.90;;;3.70;99.90;;;;;;4967625;28;20425;-47
2023/11/26 00:43:28;;;;;;;4.05;1.90;;;3.70;99.90;;;;;;4951731;28;20070;-42
2023/11/26 00:45:54;;;;;;;3.40;1.92;;;3.70;99.90;;;;;;4950441;28;20551;-42
2023/11/26 00:48:19;;;;;;;7.35;1.75;;;3.80;99.90;;;;;;4951760;28;20025;-42
2023/11/26 00:50:45;;;;;;;2.00;1.80;;;3.70;99.90;;;;;;4969070;28;20020;-42
2023/11/26 00:53:10;;;;;;;2.35;1.90;;;3.70;99.90;;;;;;4969440;28;20050;-43
2023/11/26 00:55:36;;;;;;;3.22;1.83;;;3.70;99.90;;;;;;4969685;28;20034;-43
2023/11/26 00:58:02;;;;;;;4.68;1.83;;;3.80;99.90;;;;;;4968175;28;20031;-42
2023/11/26 01:00:28;;;;;;;1.98;1.50;;;3.80;99.90;;;;;;4966832;28;20069;-44
2023/11/26 01:02:54;;;;;;;2.03;1.80;;;3.80;99.90;;;;;;4966600;28;20050;-43
2023/11/26 01:05:20;;;;;;;4.22;1.92;;;3.90;99.90;;;;;;4966827;28;20374;-44
2023/11/26 01:07:45;;;;;;;8.45;2.47;;;3.90;99.90;;;;;;4966590;28;20030;-46
2023/11/26 01:10:11;;;;;;;7.80;2.65;;;3.90;99.90;;;;;;4966589;28;20076;-43
2023/11/26 01:12:37;;;;;;;9.82;3.88;;;3.90;99.90;;;;;;4950671;28;20055;-45
2023/11/26 01:15:06;;;;;;;81.53;41.58;;;3.90;99.90;;;;;;4970170;28;20482;-46
2023/11/26 01:17:32;;;;;;;79.13;38.03;;;3.90;99.90;;;;;;4970935;28;20072;-45
2023/11/26 01:19:57;;;;;;;107.57;51.42;;;3.90;99.90;;;;;;4991054;22;20039;-50
2023/11/26 01:22:24;;;;;;;10.82;6.38;;;3.90;99.90;;;;;;4952857;28;20516;-53
2023/11/26 01:24:50;;;;;;;4.18;2.03;;;3.90;99.90;;;;;;4973299;28;20030;-51
2023/11/26 01:27:16;;;;;;;3.72;2.30;;;4.00;99.90;;;;;;4972813;28;20030;-54
2023/11/26 01:29:41;;;;;;;2.67;1.80;;;4.00;99.90;;;;;;4967331;28;20106;-52
2023/11/26 01:32:06;;;;;;;2.20;1.63;;;4.00;99.90;;;;;;4953067;29;20028;-53
2023/11/26 01:34:32;;;;;;;2.58;1.83;;;4.00;99.90;;;;;;4953293;28;20024;-52
2023/11/26 01:36:58;;;;;;;9.27;2.00;;;4.10;99.90;;;;;;4953452;29;20107;-52
2023/11/26 01:39:23;;;;;;;2.47;1.85;;;4.00;99.90;;;;;;4955016;28;20018;-56
2023/11/26 01:41:49;;;;;;;3.97;2.00;;;4.00;99.90;;;;;;4972734;28;20039;-53
2023/11/26 01:44:14;;;;;;;3.30;2.42;;;4.10;99.90;;;;;;4972584;28;20442;-53
2023/11/26 01:46:40;;;;;;;6.82;1.80;;;4.10;99.90;;;;;;4972619;28;20486;-56
2023/11/26 01:49:06;;;;;;;5.25;2.65;;;4.00;99.90;;;;;;4955340;28;20041;-51
2023/11/26 01:51:33;;;;;;;4.28;2.03;;;4.00;99.90;;;;;;4972078;28;20102;-53
2023/11/26 01:54:00;;;;;;;5.90;2.85;;;4.00;99.90;;;;;;4954892;28;20062;-50
2023/11/26 01:56:26;;;;;;;2.88;1.80;;;4.10;99.90;;;;;;4955170;28;20076;-53
2023/11/26 01:58:53;;;;;;;5.68;2.50;;;4.00;99.90;;;;;;4972277;28;20038;-52
2023/11/26 02:01:22;;;;;;;6.03;2.33;;;3.90;99.90;;;;;;4972430;28;20083;-54
2023/11/26 02:03:47;;;;;;;5.93;2.67;;;3.80;99.90;;;;;;4971880;28;20038;-51
2023/11/26 02:06:13;;;;;;;6.20;2.70;;;3.70;99.90;;;;;;4972577;28;20031;-52
2023/11/26 02:08:39;;;;;;;5.28;2.53;;;3.70;99.90;;;;;;4972311;28;20027;-55
2023/11/26 02:11:05;;;;;;;3.42;3.03;;;3.80;99.90;;;;;;4971967;28;20106;-49
2023/11/26 02:13:31;;;;;;;3.33;2.60;;;3.80;99.90;;;;;;4971583;28;20034;-51
2023/11/26 02:15:56;;;;;;;8.25;3.28;;;3.70;99.90;;;;;;4972313;28;20031;-53
2023/11/26 02:18:22;;;;;;;8.25;3.38;;;3.70;99.90;;;;;;4971935;28;20201;-51
2023/11/26 02:20:48;;;;;;;3.22;2.92;;;3.70;99.90;;;;;;4954096;28;20127;-51
2023/11/26 02:23:14;;;;;;;10.68;3.80;;;3.70;99.90;;;;;;4970347;28;20109;-54
2023/11/26 02:25:39;;;;;;;7.10;3.55;;;3.60;99.90;;;;;;4954139;28;20473;-55
2023/11/26 02:28:05;;;;;;;5.80;3.13;;;3.70;99.90;;;;;;4972369;28;20066;-55
2023/11/26 02:30:32;;;;;;;7.63;3.78;;;3.60;99.90;;;;;;4971870;28;20396;-54
2023/11/26 02:32:58;;;;;;;7.72;3.50;;;3.60;99.90;;;;;;4971586;28;20081;-55
2023/11/26 02:35:24;;;;;;;8.60;3.83;;;3.50;99.90;;;;;;4971903;28;20039;-53
2023/11/26 02:37:49;;;;;;;4.95;3.97;;;3.50;99.90;;;;;;4971722;28;20063;-55
2023/11/26 02:40:15;;;;;;;8.52;4.25;;;3.50;99.90;;;;;;4971897;28;20084;-55
2023/11/26 02:42:42;;;;;;;8.68;4.50;;;3.40;99.90;;;;;;4971058;28;20031;-56
2023/11/26 02:45:08;;;;;;;9.00;4.28;;;3.40;99.90;;;;;;4971759;28;20385;-55
2023/11/26 02:47:33;;;;;;;8.52;3.78;;;3.30;99.90;;;;;;4971381;28;20110;-51
2023/11/26 02:49:59;;;;;;;8.60;3.83;;;3.30;99.90;;;;;;4971632;28;20102;-53
2023/11/26 02:52:24;;;;;;;7.20;3.60;;;3.30;99.90;;;;;;4971308;28;20023;-52
2023/11/26 02:54:50;;;;;;;5.95;3.22;;;3.30;99.90;;;;;;4971620;28;20031;-56
2023/11/26 02:57:15;;;;;;;12.25;6.25;;;3.30;99.90;;;;;;4971639;28;20049;-54
2023/11/26 02:59:44;;;;;;;13.32;4.57;;;3.30;99.90;;;;;;4971462;28;20035;-50
2023/11/26 03:02:09;;;;;;;5.43;3.22;;;3.30;99.90;;;;;;4970640;28;20389;-51
2023/11/26 03:04:37;;;;;;;7.60;3.95;;;3.30;99.90;;;;;;4971650;28;20034;-55
2023/11/26 03:07:03;;;;;;;9.63;3.97;;;3.30;99.90;;;;;;4971382;28;20140;-54
2023/11/26 03:12:53;;;;;;;9.85;4.57;;;3.40;99.90;;;;;;4970941;28;20027;-52
2023/11/26 03:14:59;;;;;;;7.05;3.95;;;3.40;99.90;;;;;;4971306;28;20033;-53
2023/11/26 03:17:25;;;;;;;9.18;4.22;;;3.40;99.90;;;;;;4971329;28;20094;-55
2023/11/26 03:19:51;;;;;;;4.65;3.30;;;3.50;99.90;;;;;;4971190;28;20096;-53
2023/11/26 03:22:17;;;;;;;10.80;3.92;;;3.50;99.90;;;;;;4970844;28;20505;-51
2023/11/26 03:24:43;;;;;;;5.65;3.67;;;3.60;99.90;;;;;;4971218;28;20027;-56
2023/11/26 03:27:09;;;;;;;6.80;4.18;;;3.60;99.90;;;;;;4971063;28;20057;-55
2023/11/26 03:29:34;;;;;;;9.85;3.58;;;3.60;99.90;;;;;;4971275;28;20034;-55
2023/11/26 03:32:00;;;;;;;6.82;3.88;;;3.60;99.90;;;;;;4953733;28;20034;-55
2023/11/26 03:34:28;;;;;;;6.70;3.97;;;3.60;99.90;;;;;;4970861;28;20026;-56
2023/11/26 03:36:53;;;;;;;7.38;4.35;;;3.70;99.90;;;;;;4971032;28;20025;-54
2023/11/26 03:39:20;;;;;;;8.63;3.75;;;3.70;99.90;;;;;;4953797;28;20109;-56
2023/11/26 03:41:46;;;;;;;9.15;4.38;;;3.60;99.90;;;;;;4971245;28;20478;-54
2023/11/26 03:44:12;;;;;;;6.65;4.50;;;3.60;99.90;;;;;;4970659;28;20482;-54
2023/11/26 03:46:42;;;;;;;6.47;4.85;;;3.60;99.90;;;;;;4953091;28;20037;-55
2023/11/26 03:49:07;;;;;;;10.75;5.28;;;3.70;99.90;;;;;;4970701;28;20477;-54
2023/11/26 03:51:33;;;;;;;10.18;5.03;;;3.80;99.90;;;;;;4953438;28;20037;-56
2023/11/26 03:53:59;;;;;;;6.57;4.25;;;3.90;99.90;;;;;;4970555;28;20106;-55
2023/11/26 03:56:24;;;;;;;6.88;4.10;;;3.90;99.90;;;;;;4953128;28;20034;-52
2023/11/26 03:58:50;;;;;;;5.78;3.90;;;3.90;99.90;;;;;;4952506;28;20038;-53
2023/11/26 04:01:16;;;;;;;5.03;4.47;;;3.90;99.90;;;;;;4970577;28;20114;-53
2023/11/26 04:03:41;;;;;;;6.68;5.35;;;3.80;99.90;;;;;;4952616;28;20126;-53
2023/11/26 04:06:07;;;;;;;9.50;4.13;;;3.90;99.90;;;;;;4970136;28;20160;-56
2023/11/26 04:08:32;;;;;;;6.60;3.75;;;3.90;99.90;;;;;;4971085;28;20379;-56
2023/11/26 04:10:58;;;;;;;6.15;3.83;;;3.80;99.90;;;;;;4970327;28;20084;-56
2023/11/26 04:13:27;;;;;;;4.97;3.85;;;3.90;99.90;;;;;;4970242;28;20031;-54
2023/11/26 04:15:57;;;;;;;6.65;3.63;;;3.90;99.90;;;;;;4970516;28;20049;-55
2023/11/26 04:18:24;;;;;;;7.80;4.60;;;4.00;99.90;;;;;;4970271;28;20110;-55
2023/11/26 04:20:50;;;;;;;4.70;3.85;;;3.90;99.90;;;;;;4970261;28;20074;-53
2023/11/26 04:23:18;;;;;;;6.03;3.70;;;3.90;99.90;;;;;;4969811;28;20429;-52
2023/11/26 04:25:43;;;;;;;4.90;3.22;;;3.80;99.90;;;;;;4970591;28;20031;-53
2023/11/26 04:28:09;;;;;;;3.35;3.05;;;3.80;99.90;;;;;;4970300;28;20030;-54
2023/11/26 04:30:35;;;;;;;4.78;2.95;;;3.80;99.90;;;;;;4970545;28;20023;-54
2023/11/26 04:33:00;;;;;;;6.60;3.08;;;3.90;99.90;;;;;;4952797;28;20027;-54
2023/11/26 04:35:26;;;;;;;4.78;3.45;;;3.80;99.90;;;;;;4970301;28;20052;-56
2023/11/26 04:37:51;;;;;;;4.32;3.13;;;3.80;99.90;;;;;;4970326;28;20482;-54
2023/11/26 04:40:17;;;;;;;3.42;3.00;;;3.70;99.90;;;;;;4970206;28;20038;-56
2023/11/26 04:42:43;;;;;;;2.65;2.45;;;3.70;99.90;;;;;;4970046;28;20050;-55
2023/11/26 04:45:09;;;;;;;6.80;2.83;;;3.70;99.90;;;;;;4969633;28;20035;-51
2023/11/26 04:47:37;;;;;;;3.35;2.22;;;3.70;99.90;;;;;;4969431;28;20554;-51
2023/11/26 04:50:04;;;;;;;3.65;2.97;;;3.70;99.90;;;;;;4969427;28;20451;-51
2023/11/26 04:52:30;;;;;;;4.07;2.90;;;3.80;99.90;;;;;;4969375;28;20125;-56
2023/11/26 04:54:55;;;;;;;5.20;2.47;;;3.70;99.90;;;;;;4970232;28;20106;-56
2023/11/26 04:57:21;;;;;;;5.82;3.15;;;3.80;99.90;;;;;;4969940;28;20105;-52
2023/11/26 04:59:47;;;;;;;3.55;3.25;;;3.90;99.90;;;;;;4952504;28;20023;-53
2023/11/26 05:02:14;;;;;;;5.15;3.47;;;3.90;99.90;;;;;;4969564;28;20027;-52
2023/11/26 05:04:40;;;;;;;3.60;3.00;;;3.90;99.90;;;;;;4969869;28;20029;-55
2023/11/26 05:07:05;;;;;;;6.28;3.85;;;4.00;99.90;;;;;;4952446;28;20039;-56
2023/11/26 05:09:32;;;;;;;5.72;3.28;;;4.00;99.90;;;;;;4969680;28;20062;-54
2023/11/26 05:12:01;;;;;;;4.68;3.72;;;4.00;99.90;;;;;;4969569;28;20023;-54
2023/11/26 05:14:27;;;;;;;6.55;3.80;;;3.90;99.90;;;;;;4969483;28;20019;-54
2023/11/26 05:16:53;;;;;;;5.60;3.70;;;3.80;99.90;;;;;;4951428;28;20482;-55
2023/11/26 05:19:19;;;;;;;8.15;3.70;;;3.80;99.90;;;;;;4969700;28;20038;-52
2023/11/26 05:21:45;;;;;;;4.28;3.65;;;3.80;99.90;;;;;;4969788;28;20053;-53
2023/11/26 05:24:11;;;;;;;4.85;4.30;;;3.80;99.90;;;;;;4969349;28;20031;-52
2023/11/26 05:26:36;;;;;;;6.30;4.18;;;3.70;99.90;;;;;;4969410;28;20035;-54
2023/11/26 05:29:03;;;;;;;8.43;4.25;;;3.60;99.90;;;;;;4969492;28;20035;-54
2023/11/26 05:31:29;;;;;;;9.68;4.47;;;3.60;99.90;;;;;;4969683;28;20088;-55
2023/11/26 05:33:54;;;;;;;4.43;3.88;;;3.70;99.90;;;;;;4969328;28;20478;-55
2023/11/26 05:36:20;;;;;;;6.10;4.70;;;3.70;99.90;;;;;;4969088;28;20027;-53
2023/11/26 05:38:46;;;;;;;4.47;3.72;;;3.70;99.90;;;;;;4969639;28;20042;-52
2023/11/26 05:41:12;;;;;;;6.50;4.63;;;3.70;99.90;;;;;;4969372;28;20042;-52
2023/11/26 05:43:37;;;;;;;8.68;4.22;;;3.60;99.90;;;;;;4969034;28;20039;-56
2023/11/26 05:46:07;;;;;;;5.95;4.28;;;3.60;99.90;;;;;;4969155;28;20039;-54
2023/11/26 05:48:33;;;;;;;13.75;5.85;;;3.60;99.90;;;;;;4969002;28;20169;-51
2023/11/26 05:50:59;;;;;;;8.27;4.38;;;3.50;99.90;;;;;;4969096;28;20035;-56
2023/11/26 05:53:24;;;;;;;6.60;3.83;;;3.50;99.90;;;;;;4969202;28;20026;-53
2023/11/26 05:55:50;;;;;;;5.47;4.22;;;3.50;99.90;;;;;;4969467;28;20019;-53
2023/11/26 05:58:16;;;;;;;6.63;4.80;;;3.60;99.90;;;;;;4969784;28;20035;-52
2023/11/26 06:00:42;;;;;;;10.23;3.95;;;3.70;99.90;;;;;;4955207;28;20042;-49
2023/11/26 06:03:07;;;;;;;7.78;4.30;;;3.60;99.90;;;;;;4971984;28;20031;-55
2023/11/26 06:05:37;;;;;;;7.40;4.75;;;3.60;99.90;;;;;;4972448;28;20022;-52
2023/11/26 06:08:05;;;;;;;7.20;4.32;;;3.70;99.90;;;;;;4972145;28;20062;-53
2023/11/26 06:10:32;;;;;;;5.57;4.20;;;3.60;99.90;;;;;;4972316;28;20106;-52
2023/11/26 06:12:57;;;;;;;13.57;4.40;;;3.60;99.90;;;;;;4972303;28;20329;-52
2023/11/26 06:15:23;;;;;;;5.78;4.10;;;3.60;99.90;;;;;;4972327;28;20065;-51
2023/11/26 06:17:49;;;;;;;7.03;4.28;;;3.60;99.90;;;;;;4971762;28;20097;-55
2023/11/26 06:20:15;;;;;;;9.02;4.47;;;3.60;99.90;;;;;;4972365;28;20042;-55
2023/11/26 06:22:40;;;;;;;10.95;4.40;;;3.70;99.90;;;;;;4972080;28;20023;-53
2023/11/26 06:25:09;;;;;;;9.63;4.05;;;3.70;99.90;;;;;;4972294;28;20101;-51
2023/11/26 06:27:34;;;;;;;5.47;4.32;;;3.70;99.90;;;;;;4971649;28;20058;-52
2023/11/26 06:30:00;;;;;;;7.95;4.45;;;3.70;99.90;;;;;;4972106;28;20103;-50
2023/11/26 06:32:25;;;;;;;4.30;3.90;;;3.70;99.90;;;;;;4971787;28;20023;-51
2023/11/26 06:34:51;;;;;;;9.35;5.15;;;3.70;99.90;;;;;;4954874;28;20023;-50
2023/11/26 06:37:16;;;;;;;7.20;4.03;;;3.70;99.90;;;;;;4971521;28;20114;-48
2023/11/26 06:39:42;;;;;;;7.20;4.82;;;3.70;99.90;;;;;;4971927;28;20405;-51
2023/11/26 06:42:07;;;;;;;14.18;5.63;;;3.70;99.90;;;;;;4971507;28;20060;-48
2023/11/26 06:44:33;;;;;;;6.22;4.13;;;3.60;99.90;;;;;;4972021;28;20023;-50
2023/11/26 06:46:59;;;;;;;5.05;3.53;;;3.60;99.90;;;;;;4972143;28;20065;-53
2023/11/26 06:49:24;;;;;;;6.32;4.00;;;3.70;99.90;;;;;;4972027;28;20031;-52
2023/11/26 06:51:53;;;;;;;10.68;4.28;;;3.60;99.90;;;;;;4954490;28;20026;-54
2023/11/26 06:54:18;;;;;;;11.85;4.60;;;3.60;99.90;;;;;;4971690;28;20440;-52
2023/11/26 06:56:44;;;;;;;6.43;3.63;;;3.60;99.90;;;;;;4972133;28;20069;-51
2023/11/26 06:59:09;;;;;;;5.68;3.97;;;3.70;99.90;;;;;;4971781;28;20042;-54
2023/11/26 07:01:36;;;;;;;13.43;4.88;;;3.60;99.90;;;;;;4971819;28;20386;-50
2023/11/26 07:04:01;;;;;;;8.32;3.72;;;3.70;99.90;;;;;;4971626;28;20031;-53
2023/11/26 07:06:27;;;;;;;11.45;4.85;;;3.70;99.90;;;;;;4971423;28;20035;-52
2023/11/26 07:08:52;;;;;;;7.88;4.57;;;3.80;99.90;;;;;;4971550;28;20034;-50
2023/11/26 07:11:19;;;;;;;9.25;5.03;;;3.90;99.90;;;;;;4953168;28;20034;-56
2023/11/26 07:13:47;;;;;;;8.45;4.75;;;3.80;99.90;;;;;;4971307;28;20057;-51
2023/11/26 07:16:13;;;;;;;8.40;5.88;;;3.80;99.90;;;;;;4970944;28;20037;-52
2023/11/26 07:18:38;;;;;;;10.13;4.40;;;3.70;99.90;;;;;;4971363;28;20043;-52
2023/11/26 07:21:05;;;;;;;6.30;4.40;;;3.70;99.90;;;;;;4990678;22;20422;-51
2023/11/26 07:23:31;;;;;;;9.02;4.75;;;3.80;99.90;;;;;;4970819;28;20034;-50
2023/11/26 07:25:57;;;;;;;8.80;4.35;;;3.80;99.90;;;;;;4970331;28;20026;-46
2023/11/26 07:28:22;;;;;;;10.75;5.38;;;3.80;99.90;;;;;;4951857;28;20399;-46
2023/11/26 07:30:48;;;;;;;8.10;4.50;;;3.80;99.90;;;;;;4951871;28;20086;-47
2023/11/26 07:33:14;;;;;;;11.73;4.70;;;3.90;99.90;;;;;;4951548;28;20074;-51
2023/11/26 07:35:39;;;;;;;19.50;5.15;;;3.80;99.90;;;;;;4950825;28;20402;-51
2023/11/26 07:38:06;;;;;;;9.73;4.75;;;3.90;99.90;;;;;;4953558;28;20567;-45
2023/11/26 07:40:32;;;;;;;6.93;3.63;;;3.90;99.90;;;;;;4953695;28;20030;-47
2023/11/26 07:42:59;;;;;;;9.43;4.05;;;4.00;99.90;;;;;;4970766;28;20030;-52
2023/11/26 07:45:25;;;;;;;5.18;3.95;;;4.00;99.90;;;;;;4971033;28;20050;-48
2023/11/26 07:47:50;;;;;;;7.47;4.32;;;4.00;99.90;;;;;;4952940;28;20077;-51
2023/11/26 07:50:16;;;;;;;7.85;4.45;;;4.00;99.90;;;;;;4970788;28;20118;-46
2023/11/26 07:52:41;;;;;;;7.93;4.97;;;4.10;99.90;;;;;;4970569;28;20029;-48
2023/11/26 07:55:07;;;;;;;8.55;3.60;;;4.20;99.90;;;;;;4970840;28;20026;-47
2023/11/26 07:57:34;;;;;;;5.47;3.85;;;4.30;99.90;;;;;;4970188;28;20030;-47
2023/11/26 08:00:01;;;;;;;6.00;4.25;;;4.40;99.90;;;;;;4970256;28;20034;-49
2023/11/26 08:02:28;;;;;;;8.82;4.93;;;4.40;99.90;;;;;;4970236;28;20053;-48
2023/11/26 08:04:54;;;;;;;8.65;4.45;;;4.50;99.90;;;;;;4970777;28;20105;-49
2023/11/26 08:07:23;;;;;;;8.38;3.88;;;4.50;99.90;;;;;;4952917;28;20612;-49
2023/11/26 08:09:50;;;;;;;7.18;4.13;;;4.60;99.90;;;;;;4970559;28;20066;-51
2023/11/26 08:12:20;;;;;;;6.03;3.38;;;4.50;99.90;;;;;;4970237;28;20394;-46
2023/11/26 08:14:47;;;;;;;8.10;3.10;;;4.50;99.90;;;;;;4970773;28;20018;-49
2023/11/26 08:17:14;;;;;;;6.30;3.78;;;4.50;99.90;;;;;;4970653;28;20027;-47
2023/11/26 08:19:41;;;;;;;5.00;3.60;;;4.40;99.90;;;;;;4970996;28;20027;-54
2023/11/26 08:22:07;;;;;;;6.10;4.30;;;4.40;99.90;;;;;;4969769;28;20058;-51
2023/11/26 08:24:36;;;;;;;5.00;3.45;;;4.50;99.90;;;;;;4954003;28;20064;-47
2023/11/26 08:27:01;;;;;;;6.90;3.75;;;4.60;99.90;;;;;;4953222;28;20031;-49
2023/11/26 08:29:27;;;;;;;5.00;3.15;;;4.60;99.90;;;;;;4970461;28;20444;-47
2023/11/26 08:31:54;;;;;;;5.32;3.17;;;4.70;99.90;;;;;;4970299;28;20056;-43
2023/11/26 08:34:22;;;;;;;6.47;3.42;;;4.70;99.90;;;;;;4970224;28;20034;-46
2023/11/26 08:36:48;;;;;;;8.10;3.55;;;4.70;99.90;;;;;;4969876;28;20019;-49
2023/11/26 08:39:26;;;;;;;6.65;3.58;;;4.60;99.90;;;;;;4970239;28;20077;-46
2023/11/26 08:41:52;;;;;;;7.60;4.65;;;4.70;99.90;;;;;;4970022;28;20405;-47
2023/11/26 08:44:18;;;;;;;11.07;5.18;;;4.70;99.90;;;;;;4969994;28;20027;-49
2023/11/26 08:46:43;;;;;;;7.43;5.10;;;4.70;99.90;;;;;;4969849;28;20034;-50
2023/11/26 08:49:10;;;;;;;8.40;4.85;;;4.60;99.90;;;;;;4970150;28;20504;-46
2023/11/26 08:51:36;;;;;;;9.27;5.72;;;4.70;99.90;;;;;;4968869;28;20029;-49
2023/11/26 08:54:03;;;;;;;10.30;6.10;;;4.80;99.90;;;;;;5035136;28;20025;-46
2023/11/26 08:56:30;;;;;;;9.18;5.53;;;4.70;99.90;;;;;;5027387;28;20076;-46
2023/11/26 08:58:55;;;;;;;10.60;6.32;;;4.70;99.90;;;;;;5033561;28;20490;-45
2023/11/26 09:01:21;;;;;;;7.13;5.57;;;4.60;99.90;;;;;;5006588;28;20080;-49
2023/11/26 09:03:46;;;;;;;12.75;5.82;;;4.60;99.90;;;;;;4952452;28;20019;-46
2023/11/26 09:06:13;;;;;;;11.15;6.22;;;4.70;99.90;;;;;;4969471;28;20398;-50
2023/11/26 09:08:38;;;;;;;8.20;6.10;;;4.70;99.90;;;;;;4951104;28;20524;-44
2023/11/26 09:11:04;;;;;;;11.15;6.55;;;4.70;99.90;;;;;;4969189;28;20058;-48
2023/11/26 09:13:30;;;;;;;10.93;6.90;;;4.90;99.90;;;;;;4969499;28;20068;-47
2023/11/26 09:15:57;;;;;;;13.63;6.57;;;4.90;99.90;;;;;;4969435;28;20023;-47
2023/11/26 09:18:23;;;;;;;10.90;6.32;;;4.90;99.90;;;;;;4969562;28;20084;-47
2023/11/26 09:20:49;;;;;;;11.38;6.65;;;4.90;99.90;;;;;;4969687;28;20039;-47
2023/11/26 09:23:14;;;;;;;11.43;6.10;;;4.80;99.90;;;;;;4952381;28;20035;-49
2023/11/26 09:25:40;;;;;;;14.73;6.25;;;4.80;99.90;;;;;;4951096;28;20026;-46
2023/11/26 09:28:06;;;;;;;10.40;5.45;;;4.90;99.90;;;;;;4987243;28;20025;-46
2023/11/26 09:30:31;;;;;;;7.75;4.90;;;4.90;99.90;;;;;;4952229;28;20450;-50
2023/11/26 09:32:57;;;;;;;9.05;5.60;;;5.00;99.90;;;;;;4950514;28;20023;-49
2023/11/26 09:35:23;;;;;;;10.45;5.10;;;5.20;99.90;;;;;;4952229;28;20115;-46
2023/11/26 09:37:48;;;;;;;9.23;5.03;;;5.30;99.90;;;;;;4953491;28;20062;-55
2023/11/26 09:40:14;;;;;;;13.20;4.63;;;5.40;99.90;;;;;;4952309;28;20019;-52
2023/11/26 09:42:44;;;;;;;10.15;4.57;;;5.50;99.90;;;;;;4954059;28;20110;-56
2023/11/26 09:45:10;;;;;;;6.28;4.85;;;5.50;99.90;;;;;;4972959;28;20027;-58
2023/11/26 09:47:36;;;;;;;7.82;4.00;;;5.60;99.90;;;;;;4973083;28;20050;-53
2023/11/26 09:50:02;;;;;;;14.25;4.45;;;5.60;99.90;;;;;;4972608;28;20031;-58
2023/11/26 09:52:29;;;;;;;6.95;3.70;;;5.70;99.90;;;;;;4972331;28;20435;-58
2023/11/26 09:54:56;;;;;;;11.15;4.32;;;5.80;99.90;;;;;;4955263;28;20030;-53
2023/11/26 09:57:22;;;;;;;7.60;3.25;;;6.00;99.90;;;;;;4974953;28;20030;-52
2023/11/26 09:59:48;;;;;;;10.30;3.58;;;6.00;99.90;;;;;;4955469;28;20023;-48
2023/11/26 10:02:13;;;;;;;11.57;4.20;;;5.80;99.90;;;;;;4972175;28;20055;-45
2023/11/26 10:04:46;;;;;;;5.07;3.63;;;5.90;99.90;;;;;;4972419;28;20061;-48
2023/11/26 10:07:12;;;;;;;7.22;3.03;;;5.90;99.90;;;;;;4954895;28;20145;-52
2023/11/26 10:09:37;;;;;;;9.27;4.85;;;5.80;99.90;;;;;;4972185;28;20593;-49
2023/11/26 10:12:03;;;;;;;4.70;3.20;;;5.80;99.90;;;;;;4954907;28;20177;-51
2023/11/26 10:14:29;;;;;;;9.02;3.78;;;5.80;99.90;;;;;;4972348;28;20579;-51
2023/11/26 10:16:54;;;;;;;9.73;3.72;;;5.70;99.90;;;;;;4954893;28;20061;-51
2023/11/26 10:19:28;;;;;;;10.73;3.58;;;5.70;99.90;;;;;;4972212;28;20102;-46
2023/11/26 10:21:56;;;;;;;7.50;2.63;;;5.80;99.90;;;;;;4954723;28;20042;-49
2023/11/26 10:24:24;;;;;;;9.65;3.05;;;5.90;99.90;;;;;;4972040;28;20037;-45
2023/11/26 10:26:52;;;;;;;11.30;3.47;;;5.90;99.90;;;;;;4971263;28;20118;-51
2023/11/26 10:29:20;;;;;;;4.43;2.33;;;5.90;99.90;;;;;;4971270;28;20101;-52
2023/11/26 10:31:57;;;;;;;3.25;2.40;;;5.90;99.90;;;;;;4971776;28;20084;-50
2023/11/26 10:34:23;;;;;;;12.27;2.60;;;6.00;99.90;;;;;;4971533;28;20094;-48
2023/11/26 10:36:48;;;;;;;10.07;3.13;;;6.10;99.90;;;;;;4971920;28;20157;-50
2023/11/26 10:39:14;;;;;;;7.95;2.67;;;6.10;99.90;;;;;;4972329;28;20026;-47
2023/11/26 10:41:44;;;;;;;7.43;3.10;;;6.10;99.90;;;;;;4972374;28;20022;-46
2023/11/26 10:44:11;;;;;;;6.30;3.22;;;6.20;99.90;;;;;;4953897;28;20026;-48
2023/11/26 10:46:37;;;;;;;11.48;2.97;;;6.20;99.90;;;;;;4971630;28;20383;-47
2023/11/26 10:49:14;;;;;;;13.38;2.83;;;6.20;99.90;;;;;;4971893;28;20055;-46
2023/11/26 10:51:46;;;;;;;6.93;3.08;;;6.20;99.90;;;;;;4972627;28;20118;-48
2023/11/26 10:54:30;;;;;;;5.47;2.90;;;6.30;99.90;;;;;;4972277;28;20031;-52
2023/11/26 10:57:06;;;;;;;8.20;3.30;;;6.30;99.90;;;;;;4973166;28;20042;-47
2023/11/26 10:59:36;;;;;;;9.48;3.30;;;6.40;99.90;;;;;;4955104;28;20088;-47
2023/11/26 11:02:03;;;;;;;8.85;3.45;;;6.50;99.90;;;;;;4954234;28;20038;-43
2023/11/26 11:04:32;;;;;;;11.15;4.15;;;6.60;99.90;;;;;;4954717;28;20022;-49
2023/11/26 11:06:59;;;;;;;9.30;4.05;;;6.50;99.90;;;;;;4954215;28;20037;-56
2023/11/26 11:09:35;;;;;;;8.02;3.40;;;6.50;99.90;;;;;;4971362;28;20555;-51
2023/11/26 11:12:10;;;;;;;6.03;3.28;;;6.50;99.90;;;;;;4971543;28;20033;-49
2023/11/26 11:14:36;;;;;;;13.80;3.83;;;6.60;99.90;;;;;;4954174;28;20042;-50
2023/11/26 11:17:02;;;;;;;5.82;3.17;;;6.60;99.90;;;;;;4971709;28;20027;-48
2023/11/26 11:19:49;;;;;;;7.38;3.50;;;6.60;99.90;;;;;;4971625;28;20022;-51
2023/11/26 11:22:16;;;;;;;9.88;3.90;;;6.60;99.90;;;;;;4971339;28;20444;-47
2023/11/26 11:24:41;;;;;;;8.52;3.67;;;6.60;99.90;;;;;;4971773;28;20031;-51
2023/11/26 11:27:07;;;;;;;8.05;3.00;;;6.60;99.90;;;;;;4971061;28;20063;-54
2023/11/26 11:29:33;;;;;;;6.22;2.50;;;6.60;99.90;;;;;;4971274;28;20031;-47
2023/11/26 11:32:02;;;;;;;8.25;2.88;;;6.70;99.90;;;;;;4970638;28;20048;-50
2023/11/26 11:34:29;;;;;;;6.32;2.72;;;6.60;99.90;;;;;;4970747;28;20027;-47
2023/11/26 11:36:56;;;;;;;8.30;3.05;;;6.60;99.90;;;;;;4970917;28;20106;-53
2023/11/26 11:39:27;;;;;;;8.70;3.03;;;6.70;99.90;;;;;;4971195;28;20145;-53
2023/11/26 11:42:02;;;;;;;7.63;2.70;;;6.80;99.90;;;;;;4953314;28;20080;-50
2023/11/26 11:44:30;;;;;;;10.45;5.20;;;6.80;99.90;;;;;;4971384;28;20034;-53
2023/11/26 11:46:56;;;;;;;77.50;40.90;;;6.80;99.90;;;;;;4953494;28;20030;-53
2023/11/26 11:49:22;;;;;;;10.32;4.40;;;6.90;99.90;;;;;;4971059;28;20031;-49
2023/11/26 11:51:48;;;;;;;5.55;2.63;;;6.80;99.90;;;;;;4970732;28;20038;-49
2023/11/26 11:54:29;;;;;;;7.72;3.42;;;6.80;99.90;;;;;;4970897;28;20316;-52
2023/11/26 11:56:59;;;;;;;8.85;3.55;;;6.80;99.90;;;;;;4970671;28;20027;-50
2023/11/26 11:59:25;;;;;;;5.63;2.83;;;6.80;99.90;;;;;;4970853;28;20055;-52
2023/11/26 12:01:52;;;;;;;6.18;3.00;;;6.90;99.90;;;;;;4970319;28;20027;-49
2023/11/26 12:04:18;;;;;;;6.78;2.60;;;6.90;99.90;;;;;;4969530;28;20035;-47
2023/11/26 12:06:50;;;;;;;11.60;3.30;;;6.90;99.90;;;;;;4970275;28;20079;-43
2023/11/26 12:09:16;;;;;;;9.70;3.45;;;6.90;99.90;;;;;;4970539;28;20081;-46
2023/11/26 12:11:49;;;;;;;6.22;3.95;;;7.00;99.90;;;;;;4970146;28;20038;-49
2023/11/26 12:14:26;;;;;;;9.73;3.72;;;6.90;99.90;;;;;;4966740;28;20029;-48
2023/11/26 12:16:53;;;;;;;9.82;4.35;;;6.90;99.90;;;;;;4970112;28;20040;-45
2023/11/26 12:19:19;;;;;;;12.35;4.57;;;6.90;99.90;;;;;;4970316;28;20033;-55
2023/11/26 12:21:44;;;;;;;11.43;4.65;;;7.00;99.90;;;;;;4969670;28;20597;-48
2023/11/26 12:24:21;;;;;;;17.95;5.30;;;7.00;99.90;;;;;;4969746;28;20528;-49
2023/11/26 12:26:47;;;;;;;13.55;5.30;;;7.00;99.90;;;;;;4951207;29;20038;-47
2023/11/26 12:29:21;;;;;;;8.88;4.15;;;7.00;99.90;;;;;;4958766;28;20035;-50
2023/11/26 12:31:47;;;;;;;15.43;5.53;;;7.00;99.90;;;;;;4970349;28;20118;-46
2023/11/26 12:34:12;;;;;;;10.25;4.65;;;7.00;99.90;;;;;;4970266;28;20114;-47
2023/11/26 12:36:38;;;;;;;12.15;4.65;;;6.90;99.90;;;;;;4970172;28;20034;-46
2023/11/26 12:39:04;;;;;;;10.00;5.15;;;6.90;99.90;;;;;;4953141;28;20027;-49
2023/11/26 12:41:30;;;;;;;15.10;4.93;;;6.90;99.90;;;;;;4970225;28;20114;-53
2023/11/26 12:44:01;;;;;;;10.10;4.97;;;6.90;99.90;;;;;;4970138;28;20066;-50
2023/11/26 12:46:27;;;;;;;9.43;5.40;;;6.90;99.90;;;;;;4953134;28;20118;-50
2023/11/26 12:48:54;;;;;;;12.05;5.43;;;6.80;99.90;;;;;;4970143;28;20109;-52
2023/11/26 12:51:19;;;;;;;87.20;52.72;;;6.80;99.90;;;;;;4970058;28;20446;-50
2023/11/26 12:53:51;;;;;;;70.47;37.67;;;6.90;99.90;;;;;;4970164;28;20097;-49
2023/11/26 12:56:21;;;;;;;23.55;10.57;;;6.90;99.90;;;;;;4969667;28;20023;-53